createdAt,value
2018-10-16T03:09:56.644Z,80.66
2018-10-16T03:10:56.574Z,80.99
2018-10-16T03:11:56.624Z,80.85
2018-10-16T03:12:56.560Z,80.66
2018-10-16T03:13:56.558Z,80.27
2018-10-16T03:14:56.551Z,80.56
2018-10-16T03:15:56.546Z,81.04
2018-10-16T03:16:56.538Z,80.94
2018-10-16T03:17:56.558Z,80.47
2018-10-16T03:18:56.528Z,80.56
2018-10-16T03:19:56.529Z,80.66
2018-10-16T03:20:56.523Z,81.33
2018-10-16T03:21:56.519Z,80.94
2018-10-16T03:22:56.515Z,80.37
2018-10-16T03:23:56.505Z,80.66
2018-10-16T03:24:56.502Z,80.85
2018-10-16T03:25:56.507Z,80.85
2018-10-16T03:26:56.497Z,80.08
2018-10-16T03:27:56.490Z,80.85
2018-10-16T03:28:56.482Z,80.66
2018-10-16T03:29:56.480Z,80.76
2018-10-16T03:30:56.473Z,80.47
2018-10-16T03:31:56.472Z,80.85
2018-10-16T03:32:56.463Z,81.33
2018-10-16T03:33:56.468Z,81.43
2018-10-16T03:34:56.453Z,81.13
2018-10-16T03:35:56.456Z,80.76
2018-10-16T03:36:56.450Z,81.33
2018-10-16T03:37:56.445Z,80.08
2018-10-16T03:38:56.439Z,80.18
2018-10-16T03:39:56.432Z,80.56
2018-10-16T03:40:56.464Z,80.47
2018-10-16T03:41:56.427Z,80.37
2018-10-16T03:42:56.421Z,80.18
2018-10-16T03:43:56.417Z,80.56
2018-10-16T03:44:56.411Z,80.66
2018-10-16T03:45:56.408Z,80.76
2018-10-16T03:46:56.406Z,79.70
2018-10-16T03:47:56.413Z,80.18
2018-10-16T03:48:56.390Z,80.12
2018-10-16T03:49:56.392Z,80.56
2018-10-16T03:50:56.388Z,80.47
2018-10-16T03:51:56.378Z,80.66
2018-10-16T03:52:56.377Z,79.99
2018-10-16T03:53:56.377Z,80.56
2018-10-16T03:54:56.366Z,80.37
2018-10-16T03:55:56.364Z,81.71
2018-10-16T03:56:56.361Z,81.62
2018-10-16T03:57:56.354Z,81.43
2018-10-16T03:58:56.351Z,81.62
2018-10-16T03:59:56.344Z,81.33
2018-10-16T04:00:56.337Z,81.33
2018-10-16T04:01:56.360Z,81.62
2018-10-16T04:02:56.330Z,81.71
2018-10-16T04:03:56.341Z,82.00
2018-10-16T04:04:56.325Z,82.00
2018-10-16T04:05:56.327Z,82.96
2018-10-16T04:06:56.313Z,82.48
2018-10-16T04:07:56.309Z,82.38
2018-10-16T04:08:56.304Z,81.90
2018-10-16T04:09:56.301Z,81.33
2018-10-16T04:10:56.297Z,81.90
2018-10-16T04:11:56.295Z,81.81
2018-10-16T04:12:56.302Z,81.81
2018-10-16T04:13:56.339Z,81.90
2018-10-16T04:14:56.276Z,81.52
2018-10-16T04:15:56.276Z,81.13
2018-10-16T04:16:56.268Z,80.94
2018-10-16T04:17:56.269Z,81.33
2018-10-16T04:18:56.261Z,82.96
2018-10-16T04:19:56.261Z,83.34
2018-10-16T04:20:56.248Z,82.86
2018-10-16T04:21:56.247Z,83.34
2018-10-16T04:22:56.343Z,83.82
2018-10-16T04:23:56.237Z,83.44
2018-10-16T04:24:56.232Z,84.01
2018-10-16T04:25:56.231Z,84.30
2018-10-16T04:26:56.226Z,84.88
2018-10-16T04:27:56.222Z,84.92
2018-10-16T04:28:56.220Z,84.88
2018-10-16T04:29:56.231Z,84.30
2018-10-16T04:30:56.239Z,83.15
2018-10-16T04:31:56.206Z,84.64
2018-10-16T04:32:56.200Z,85.16
2018-10-16T04:33:56.196Z,85.60
2018-10-16T04:34:56.191Z,85.50
2018-10-16T04:35:56.186Z,85.88
2018-10-16T04:36:56.175Z,86.36
2018-10-16T04:37:56.175Z,85.98
2018-10-16T04:38:56.191Z,85.02
2018-10-16T04:39:56.166Z,84.92
2018-10-16T04:40:56.163Z,85.79
2018-10-16T04:41:56.154Z,84.83
2018-10-16T04:42:56.154Z,84.74
2018-10-16T04:43:56.151Z,85.60
2018-10-16T04:44:57.814Z,84.74
2018-10-16T04:45:56.138Z,85.79
2018-10-16T04:46:56.153Z,85.88
2018-10-16T04:47:56.133Z,85.98
2018-10-16T04:48:56.151Z,85.69
2018-10-16T04:49:56.120Z,85.21
2018-10-16T04:50:56.115Z,85.69
2018-10-16T04:51:56.110Z,85.79
2018-10-16T04:52:56.109Z,85.88
2018-10-16T04:53:56.105Z,84.83
2018-10-16T04:54:56.149Z,84.74
2018-10-16T04:55:56.095Z,85.21
2018-10-16T04:56:56.102Z,85.21
2018-10-16T04:57:56.091Z,85.88
2018-10-16T04:58:56.085Z,85.88
2018-10-16T04:59:56.079Z,86.36
2018-10-16T05:00:56.071Z,85.88
2018-10-16T05:01:56.069Z,85.98
2018-10-16T05:02:56.063Z,86.08
2018-10-16T05:03:56.093Z,85.88
2018-10-16T05:04:56.050Z,86.17
2018-10-16T05:05:56.050Z,86.27
2018-10-16T05:06:56.062Z,86.27
2018-10-16T05:07:56.039Z,86.65
2018-10-16T05:08:56.035Z,86.74
2018-10-16T05:09:56.055Z,86.84
2018-10-16T05:10:56.025Z,86.36
2018-10-16T05:11:56.023Z,85.69
2018-10-16T05:12:56.049Z,85.41
2018-10-16T05:13:56.013Z,85.79
2018-10-16T05:14:56.022Z,85.60
2018-10-16T05:15:56.030Z,85.02
2018-10-16T05:16:56.007Z,84.92
2018-10-16T05:17:55.996Z,84.92
2018-10-16T05:18:56.017Z,85.31
2018-10-16T05:19:55.993Z,85.12
2018-10-16T05:20:55.979Z,85.41
2018-10-16T05:21:55.976Z,85.50
2018-10-16T05:22:55.976Z,85.31
2018-10-16T05:23:55.972Z,84.92
2018-10-16T05:24:56.005Z,85.50
2018-10-16T05:25:55.958Z,84.92
2018-10-16T05:26:55.951Z,84.74
2018-10-16T05:27:55.959Z,84.55
2018-10-16T05:28:55.947Z,85.21
2018-10-16T05:29:55.942Z,85.69
2018-10-16T05:30:55.974Z,85.60
2018-10-16T05:31:55.931Z,84.74
2018-10-16T05:32:55.926Z,84.92
2018-10-16T05:33:55.938Z,85.21
2018-10-16T05:34:56.837Z,84.74
2018-10-16T05:35:55.908Z,85.50
2018-10-16T05:36:55.908Z,84.92
2018-10-16T05:37:55.909Z,84.64
2018-10-16T05:38:55.901Z,85.12
2018-10-16T05:39:55.908Z,84.92
2018-10-16T05:40:55.892Z,84.55
2018-10-16T05:41:55.881Z,83.20
2018-10-16T05:42:55.887Z,84.35
2018-10-16T05:43:55.882Z,83.11
2018-10-16T05:44:55.871Z,83.20
2018-10-16T05:45:55.868Z,84.16
2018-10-16T05:46:55.860Z,83.87
2018-10-16T05:47:55.854Z,83.78
2018-10-16T05:48:55.854Z,83.01
2018-10-16T05:49:55.846Z,83.30
2018-10-16T05:50:55.846Z,84.06
2018-10-16T05:51:55.857Z,83.49
2018-10-16T05:52:55.832Z,83.30
2018-10-16T05:53:55.826Z,83.87
2018-10-16T05:54:55.832Z,83.87
2018-10-16T05:55:55.818Z,84.55
2018-10-16T05:56:56.354Z,85.31
2018-10-16T05:57:55.805Z,84.92
2018-10-16T05:58:55.804Z,84.83
2018-10-16T05:59:55.804Z,84.55
2018-10-16T06:00:55.812Z,84.83
2018-10-16T06:01:55.789Z,85.60
2018-10-16T06:02:55.797Z,85.79
2018-10-16T06:03:55.781Z,85.69
2018-10-16T06:04:55.781Z,85.69
2018-10-16T06:05:55.769Z,85.98
2018-10-16T06:06:55.767Z,85.98
2018-10-16T06:07:55.761Z,85.69
2018-10-16T06:08:55.757Z,85.69
2018-10-16T06:09:55.765Z,85.98
2018-10-16T06:10:55.822Z,86.27
2018-10-16T06:11:55.744Z,85.31
2018-10-16T06:12:55.742Z,86.27
2018-10-16T06:13:55.737Z,86.55
2018-10-16T06:14:55.734Z,85.88
2018-10-16T06:15:55.778Z,86.17
2018-10-16T06:16:55.743Z,86.94
2018-10-16T06:17:55.712Z,87.41
2018-10-16T06:18:55.714Z,87.08
2018-10-16T06:19:55.709Z,87.37
2018-10-16T06:20:55.703Z,87.47
2018-10-16T06:21:55.701Z,87.56
2018-10-16T06:22:55.699Z,87.13
2018-10-16T06:23:55.683Z,86.90
2018-10-16T06:24:55.690Z,87.08
2018-10-16T06:25:55.682Z,86.74
2018-10-16T06:26:55.673Z,85.98
2018-10-16T06:27:55.699Z,86.55
2018-10-16T06:28:55.665Z,87.41
2018-10-16T06:29:55.658Z,87.76
2018-10-16T06:30:55.652Z,87.95
2018-10-16T06:31:55.658Z,88.43
2018-10-16T06:32:55.648Z,88.33
2018-10-16T06:33:55.677Z,88.23
2018-10-16T06:34:55.636Z,88.52
2018-10-16T06:35:55.632Z,88.43
2018-10-16T06:36:55.632Z,88.62
2018-10-16T06:37:55.627Z,88.71
2018-10-16T06:38:55.652Z,88.43
2018-10-16T06:39:55.613Z,88.33
2018-10-16T06:40:55.723Z,89.86
2018-10-16T06:41:55.605Z,89.58
2018-10-16T06:42:55.598Z,89.86
2018-10-16T06:43:55.654Z,90.44
2018-10-16T06:44:55.605Z,90.15
2018-10-16T06:45:55.592Z,90.34
2018-10-16T06:46:55.577Z,90.34
2018-10-16T06:47:55.684Z,90.53
2018-10-16T06:48:55.869Z,91.49
2018-10-16T06:49:55.563Z,91.63
2018-10-16T06:50:55.565Z,91.30
2018-10-16T06:51:56.380Z,90.15
2018-10-16T06:52:55.556Z,89.48
2018-10-16T06:53:55.565Z,89.48
2018-10-16T06:54:55.576Z,90.15
2018-10-16T06:55:55.535Z,89.86
2018-10-16T06:56:55.535Z,89.48
2018-10-16T06:57:55.529Z,89.48
2018-10-16T06:58:55.523Z,90.53
2018-10-16T06:59:55.519Z,89.76
2018-10-16T07:00:55.513Z,89.67
2018-10-16T07:01:55.513Z,88.04
2018-10-16T07:02:55.502Z,89.19
2018-10-16T07:03:55.510Z,88.13
2018-10-16T07:04:55.501Z,88.90
2018-10-16T07:05:55.492Z,89.09
2018-10-16T07:06:55.596Z,86.99
2018-10-16T07:07:55.483Z,87.56
2018-10-16T07:08:55.478Z,86.70
2018-10-16T07:09:55.471Z,87.18
2018-10-16T07:10:55.470Z,87.66
2018-10-16T07:11:55.465Z,87.27
2018-10-16T07:12:55.477Z,86.51
2018-10-16T07:13:55.449Z,86.51
2018-10-16T07:14:55.461Z,87.37
2018-10-16T07:15:55.451Z,87.37
2018-10-16T07:16:55.466Z,86.99
2018-10-16T07:17:55.468Z,87.08
2018-10-16T07:18:55.427Z,86.41
2018-10-16T07:19:55.420Z,87.08
2018-10-16T07:20:55.431Z,86.99
2018-10-16T07:21:55.415Z,87.85
2018-10-16T07:22:55.411Z,87.18
2018-10-16T07:23:55.438Z,87.18
2018-10-16T07:24:55.901Z,88.04
2018-10-16T07:25:55.410Z,88.04
2018-10-16T07:26:55.422Z,87.95
2018-10-16T07:27:55.388Z,88.33
2018-10-16T07:28:55.379Z,88.52
2018-10-16T07:29:55.388Z,88.33
2018-10-16T07:30:55.386Z,89.19
2018-10-16T07:31:55.364Z,88.43
2018-10-16T07:32:55.356Z,88.90
2018-10-16T07:33:55.355Z,88.86
2018-10-16T07:34:55.363Z,88.81
2018-10-16T07:35:55.342Z,88.95
2018-10-16T07:36:55.342Z,87.95
2018-10-16T07:37:55.412Z,87.66
2018-10-16T07:38:55.435Z,86.99
2018-10-16T07:39:55.378Z,87.18
2018-10-16T07:40:55.908Z,87.76
2018-10-16T07:41:55.313Z,87.18
2018-10-16T07:42:55.312Z,86.90
2018-10-16T07:43:55.311Z,86.99
2018-10-16T07:44:55.306Z,87.85
2018-10-16T07:45:55.298Z,87.76
2018-10-16T07:46:55.298Z,87.95
2018-10-16T07:47:55.288Z,88.04
2018-10-16T07:48:55.278Z,88.23
2018-10-16T07:49:55.282Z,88.33
2018-10-16T07:50:55.273Z,88.33
2018-10-16T07:51:55.268Z,88.13
2018-10-16T07:52:55.265Z,88.33
2018-10-16T07:53:55.256Z,88.62
2018-10-16T07:54:55.249Z,88.33
2018-10-16T07:55:55.250Z,88.62
2018-10-16T07:56:55.263Z,86.90
2018-10-16T07:57:55.240Z,87.56
2018-10-16T07:58:55.238Z,87.27
2018-10-16T07:59:55.230Z,86.51
2018-10-16T08:00:55.223Z,86.90
2018-10-16T08:01:55.225Z,85.88
2018-10-16T08:02:55.210Z,85.31
2018-10-16T08:03:55.208Z,85.88
2018-10-16T08:04:55.214Z,85.69
2018-10-16T08:05:55.200Z,85.21
2018-10-16T08:06:55.199Z,84.92
2018-10-16T08:07:55.201Z,84.55
2018-10-16T08:08:55.186Z,83.87
2018-10-16T08:09:55.185Z,83.87
2018-10-16T08:10:55.176Z,84.92
2018-10-16T08:11:55.175Z,84.83
2018-10-16T08:12:55.168Z,85.35
2018-10-16T08:13:55.201Z,84.11
2018-10-16T08:14:55.162Z,83.25
2018-10-16T08:15:55.152Z,83.15
2018-10-16T08:16:55.193Z,82.67
2018-10-16T08:17:55.144Z,82.00
2018-10-16T08:18:55.149Z,82.48
2018-10-16T08:19:55.143Z,81.62
2018-10-16T08:20:55.142Z,81.56
2018-10-16T08:21:55.130Z,81.75
2018-10-16T08:22:55.127Z,81.56
2018-10-16T08:23:55.129Z,81.75
2018-10-16T08:24:55.112Z,81.56
2018-10-16T08:25:55.117Z,81.56
2018-10-16T08:26:55.165Z,81.66
2018-10-16T08:27:55.108Z,80.99
2018-10-16T08:28:55.092Z,81.37
2018-10-16T08:29:55.169Z,80.89
2018-10-16T08:30:55.087Z,81.56
2018-10-16T08:31:55.083Z,81.70
2018-10-16T08:32:55.085Z,81.41
2018-10-16T08:33:55.121Z,81.56
2018-10-16T08:34:55.077Z,80.93
2018-10-16T08:35:55.085Z,80.45
2018-10-16T08:36:55.120Z,80.74
2018-10-16T08:37:55.060Z,80.83
2018-10-16T08:38:55.056Z,80.93
2018-10-16T08:39:55.057Z,80.26
2018-10-16T08:40:55.056Z,80.01
2018-10-16T08:41:55.066Z,79.63
2018-10-16T08:42:55.039Z,79.72
2018-10-16T08:43:55.037Z,79.63
2018-10-16T08:44:55.136Z,79.57
2018-10-16T08:45:55.026Z,78.61
2018-10-16T08:46:55.025Z,78.03
2018-10-16T08:47:55.029Z,77.50
2018-10-16T08:48:55.017Z,77.40
2018-10-16T08:49:55.022Z,77.01
2018-10-16T08:50:55.031Z,76.57
2018-10-16T08:51:55.020Z,76.09
2018-10-16T08:52:55.016Z,74.98
2018-10-16T08:53:55.056Z,73.63
2018-10-16T08:54:55.070Z,72.96
2018-10-16T08:55:55.009Z,73.25
2018-10-16T08:56:55.006Z,73.38
2018-10-16T08:57:55.010Z,73.00
2018-10-16T08:58:55.012Z,72.94
2018-10-16T08:59:55.011Z,72.65
2018-10-16T09:00:55.015Z,70.37
2018-10-16T09:01:55.010Z,70.76
2018-10-16T09:02:55.013Z,70.66
2018-10-16T09:03:55.011Z,69.35
2018-10-16T09:04:55.007Z,68.77
2018-10-16T09:05:55.961Z,68.96
2018-10-16T09:06:55.111Z,68.48
2018-10-16T09:07:55.035Z,68.38
2018-10-16T09:08:55.025Z,67.84
2018-10-16T09:09:55.023Z,68.42
2018-10-16T09:10:55.026Z,68.32
2018-10-16T09:11:55.027Z,67.68
2018-10-16T09:12:55.029Z,66.08
2018-10-16T09:13:55.072Z,65.40
2018-10-16T09:14:55.044Z,65.11
2018-10-16T09:15:55.037Z,65.14
2018-10-16T09:16:55.037Z,65.43
2018-10-16T09:17:55.042Z,63.21
2018-10-16T09:18:55.044Z,63.53
2018-10-16T09:19:55.054Z,62.89
2018-10-16T09:20:55.971Z,61.92
2018-10-16T09:21:55.055Z,61.92
2018-10-16T09:22:55.062Z,60.93
2018-10-16T09:23:55.065Z,62.18
2018-10-16T09:24:55.086Z,62.18
2018-10-16T09:25:55.066Z,62.28
2018-10-16T09:26:55.070Z,63.12
2018-10-16T09:27:55.076Z,62.86
2018-10-16T09:28:55.085Z,63.43
2018-10-16T09:29:55.082Z,62.31
2018-10-16T09:30:55.116Z,62.40
2018-10-16T09:31:55.093Z,61.25
2018-10-16T09:32:55.103Z,61.57
2018-10-16T09:33:55.097Z,59.38
2018-10-16T09:34:55.104Z,58.37
2018-10-16T09:35:55.106Z,58.60
2018-10-16T09:36:55.112Z,59.47
2018-10-16T09:37:55.159Z,61.40
2018-10-16T09:38:55.131Z,57.73
2018-10-16T09:39:55.135Z,58.12
2018-10-16T09:40:55.131Z,58.40
2018-10-16T09:41:55.130Z,57.15
2018-10-16T09:42:55.138Z,56.67
2018-10-16T09:43:55.176Z,57.63
2018-10-16T09:44:55.151Z,57.63
2018-10-16T09:45:55.156Z,57.76
2018-10-16T09:46:55.157Z,57.08
2018-10-16T09:47:55.160Z,57.76
2018-10-16T09:48:55.171Z,57.01
2018-10-16T09:49:55.170Z,55.49
2018-10-16T09:50:55.176Z,55.26
2018-10-16T09:51:55.184Z,52.93
2018-10-16T09:52:55.186Z,54.28
2018-10-16T09:53:55.197Z,53.53
2018-10-16T09:54:55.207Z,52.66
2018-10-16T09:55:55.204Z,53.08
2018-10-16T09:56:55.203Z,51.62
2018-10-16T09:57:55.209Z,51.62
2018-10-16T09:58:55.221Z,51.62
2018-10-16T09:59:55.223Z,50.96
2018-10-16T10:00:55.311Z,51.55
2018-10-16T10:01:55.233Z,50.16
2018-10-16T10:02:55.237Z,50.92
2018-10-16T10:03:55.240Z,50.53
2018-10-16T10:04:55.246Z,51.47
2018-10-16T10:05:55.257Z,51.54
2018-10-16T10:06:55.259Z,52.78
2018-10-16T10:07:55.268Z,53.17
2018-10-16T10:08:55.272Z,54.03
2018-10-16T10:09:55.279Z,54.52
2018-10-16T10:10:55.314Z,54.16
2018-10-16T10:11:55.287Z,52.71
2018-10-16T10:12:55.304Z,51.96
2018-10-16T10:13:55.303Z,51.84
2018-10-16T10:14:55.306Z,52.32
2018-10-16T10:15:55.309Z,52.71
2018-10-16T10:16:55.316Z,52.71
2018-10-16T10:17:55.314Z,52.97
2018-10-16T10:18:55.324Z,52.49
2018-10-16T10:19:55.328Z,52.49
2018-10-16T10:20:55.332Z,52.87
2018-10-16T10:21:55.338Z,53.39
2018-10-16T10:22:55.346Z,54.28
2018-10-16T10:23:55.352Z,52.93
2018-10-16T10:24:55.366Z,51.69
2018-10-16T10:25:55.367Z,50.34
2018-10-16T10:26:55.388Z,51.18
2018-10-16T10:27:55.373Z,51.47
2018-10-16T10:28:55.378Z,51.74
2018-10-16T10:29:55.385Z,52.61
2018-10-16T10:30:55.390Z,52.49
2018-10-16T10:31:55.427Z,53.39
2018-10-16T10:32:55.396Z,52.49
2018-10-16T10:33:55.402Z,53.67
2018-10-16T10:34:55.412Z,52.71
2018-10-16T10:35:55.419Z,53.00
2018-10-16T10:36:55.419Z,53.39
2018-10-16T10:37:55.424Z,54.48
2018-10-16T10:38:55.434Z,52.93
2018-10-16T10:39:55.440Z,51.50
2018-10-16T10:40:55.467Z,51.37
2018-10-16T10:41:55.449Z,51.47
2018-10-16T10:42:55.455Z,52.83
2018-10-16T10:43:55.456Z,51.96
2018-10-16T10:44:55.473Z,54.19
2018-10-16T10:45:55.469Z,53.73
2018-10-16T10:46:55.472Z,53.34
2018-10-16T10:47:55.473Z,52.69
2018-10-16T10:48:55.480Z,51.43
2018-10-16T10:49:55.581Z,50.07
2018-10-16T10:50:55.697Z,50.48
2018-10-16T10:51:55.497Z,49.87
2018-10-16T10:52:55.503Z,50.89
2018-10-16T10:53:55.509Z,52.42
2018-10-16T10:54:55.513Z,53.55
2018-10-16T10:55:55.518Z,54.94
2018-10-16T10:56:55.667Z,52.93
2018-10-16T10:57:55.557Z,52.66
2018-10-16T10:58:55.535Z,51.65
2018-10-16T10:59:55.544Z,51.18
2018-10-16T11:00:55.552Z,49.76
2018-10-16T11:01:55.550Z,49.49
2018-10-16T11:02:55.619Z,49.32
2018-10-16T11:03:55.567Z,48.15
2018-10-16T11:04:55.592Z,46.91
2018-10-16T11:05:55.574Z,47.10
2018-10-16T11:06:55.577Z,47.00
2018-10-16T11:07:55.586Z,46.73
2018-10-16T11:08:55.598Z,46.34
2018-10-16T11:09:55.607Z,45.54
2018-10-16T11:10:55.604Z,46.78
2018-10-16T11:11:55.608Z,47.27
2018-10-16T11:12:55.612Z,46.81
2018-10-16T11:13:55.620Z,46.91
2018-10-16T11:14:55.662Z,46.20
2018-10-16T11:15:55.631Z,46.40
2018-10-16T11:16:55.635Z,46.64
2018-10-16T11:17:55.655Z,47.69
2018-10-16T11:18:55.653Z,48.93
2018-10-16T11:19:55.656Z,49.10
2018-10-16T11:20:55.697Z,49.87
2018-10-16T11:21:55.663Z,50.07
2018-10-16T11:22:55.669Z,51.53
2018-10-16T11:23:55.673Z,50.09
2018-10-16T11:24:55.682Z,49.73
2018-10-16T11:25:55.693Z,48.39
2018-10-16T11:26:55.740Z,47.52
2018-10-16T11:27:55.697Z,47.98
2018-10-16T11:28:55.698Z,48.18
2018-10-16T11:29:55.706Z,48.35
2018-10-16T11:30:55.711Z,48.90
2018-10-16T11:31:55.720Z,49.39
2018-10-16T11:32:55.734Z,50.24
2018-10-16T11:33:55.730Z,50.24
2018-10-16T11:34:55.738Z,50.43
2018-10-16T11:35:55.739Z,50.92
2018-10-16T11:36:55.802Z,51.33
2018-10-16T11:37:55.755Z,50.31
2018-10-16T11:38:55.792Z,48.88
2018-10-16T11:39:55.764Z,47.52
2018-10-16T11:40:55.767Z,47.13
2018-10-16T11:41:55.776Z,47.47
2018-10-16T11:42:55.780Z,48.80
2018-10-16T11:43:55.786Z,49.58
2018-10-16T11:44:55.798Z,49.37
2018-10-16T11:45:55.795Z,50.04
2018-10-16T11:46:55.798Z,49.95
2018-10-16T11:47:55.812Z,50.24
2018-10-16T11:48:55.819Z,51.01
2018-10-16T11:49:55.845Z,50.82
2018-10-16T11:50:55.820Z,50.43
2018-10-16T11:51:55.873Z,50.92
2018-10-16T11:52:55.834Z,50.82
2018-10-16T11:53:55.838Z,50.82
2018-10-16T11:54:55.844Z,50.82
2018-10-16T11:55:55.900Z,50.79
2018-10-16T11:56:55.854Z,51.31
2018-10-16T11:57:55.861Z,51.89
2018-10-16T11:58:55.886Z,51.21
2018-10-16T11:59:55.999Z,50.74
2018-10-16T12:00:55.890Z,51.81
2018-10-16T12:01:55.937Z,51.35
2018-10-16T12:02:55.891Z,49.24
2018-10-16T12:03:55.894Z,49.15
2018-10-16T12:04:55.905Z,48.57
2018-10-16T12:05:55.914Z,47.88
2018-10-16T12:06:55.924Z,47.88
2018-10-16T12:07:55.950Z,47.88
2018-10-16T12:08:55.919Z,49.24
2018-10-16T12:09:55.928Z,48.64
2018-10-16T12:10:55.965Z,49.22
2018-10-16T12:11:55.935Z,49.32
2018-10-16T12:12:55.958Z,49.22
2018-10-16T12:13:55.975Z,49.32
2018-10-16T12:14:55.948Z,49.51
2018-10-16T12:15:55.955Z,48.73
2018-10-16T12:16:56.075Z,49.41
2018-10-16T12:17:55.966Z,48.54
2018-10-16T12:18:55.992Z,49.39
2018-10-16T12:19:56.055Z,50.38
2018-10-16T12:20:56.008Z,49.41
2018-10-16T12:21:55.981Z,48.73
2018-10-16T12:22:55.993Z,49.49
2018-10-16T12:23:56.003Z,49.49
2018-10-16T12:24:56.056Z,49.56
2018-10-16T12:25:56.003Z,49.85
2018-10-16T12:26:56.069Z,50.31
2018-10-16T12:27:56.016Z,50.34
2018-10-16T12:28:56.057Z,50.34
2018-10-16T12:29:56.026Z,50.46
2018-10-16T12:30:56.038Z,49.51
2018-10-16T12:31:56.036Z,48.47
2018-10-16T12:32:56.058Z,48.68
2018-10-16T12:33:56.045Z,47.52
2018-10-16T12:34:56.055Z,46.91
2018-10-16T12:35:56.062Z,47.11
2018-10-16T12:36:56.091Z,47.59
2018-10-16T12:37:56.062Z,48.25
2018-10-16T12:38:56.117Z,48.32
2018-10-16T12:39:56.096Z,48.80
2018-10-16T12:40:56.097Z,49.29
2018-10-16T12:41:56.172Z,48.97
2018-10-16T12:42:56.179Z,49.46
2018-10-16T12:43:56.094Z,50.24
2018-10-16T12:44:56.147Z,49.56
2018-10-16T12:45:56.120Z,49.46
2018-10-16T12:46:56.643Z,50.14
2018-10-16T12:47:56.111Z,49.07
2018-10-16T12:48:56.116Z,49.37
2018-10-16T12:49:56.130Z,49.34
2018-10-16T12:50:56.145Z,49.63
2018-10-16T12:51:56.126Z,49.85
2018-10-16T12:52:56.137Z,50.50
2018-10-16T12:53:56.207Z,50.14
2018-10-16T12:54:56.143Z,50.34
2018-10-16T12:55:56.210Z,49.95
2018-10-16T12:56:57.291Z,49.46
2018-10-16T12:57:57.250Z,49.58
2018-10-16T12:58:56.193Z,49.32
2018-10-16T12:59:56.222Z,48.10
2018-10-16T13:00:56.166Z,46.86
2018-10-16T13:01:56.222Z,45.52
2018-10-16T13:02:56.270Z,44.09
2018-10-16T13:03:56.178Z,43.67
2018-10-16T13:04:56.478Z,44.06
2018-10-16T13:05:56.191Z,44.06
2018-10-16T13:06:56.196Z,44.14
2018-10-16T13:07:56.200Z,43.65
2018-10-16T13:08:56.252Z,43.92
2018-10-16T13:09:56.211Z,45.48
2018-10-16T13:10:56.255Z,45.26
2018-10-16T13:11:56.215Z,45.26
2018-10-16T13:12:56.212Z,44.87
2018-10-16T13:13:56.236Z,45.84
2018-10-16T13:14:56.220Z,45.94
2018-10-16T13:15:56.257Z,45.84
2018-10-16T13:16:56.324Z,45.07
2018-10-16T13:17:56.253Z,45.65
2018-10-16T13:18:56.232Z,45.36
2018-10-16T13:19:56.329Z,44.51
2018-10-16T13:20:56.262Z,44.21
2018-10-16T13:21:56.313Z,42.83
2018-10-16T13:22:56.304Z,44.19
2018-10-16T13:23:56.260Z,44.12
2018-10-16T13:24:56.255Z,43.61
2018-10-16T13:25:56.275Z,43.34
2018-10-16T13:26:56.275Z,43.07
2018-10-16T13:27:56.295Z,42.99
2018-10-16T13:28:56.295Z,42.80
2018-10-16T13:29:56.336Z,42.90
2018-10-16T13:30:56.290Z,43.26
2018-10-16T13:31:56.293Z,42.36
2018-10-16T13:32:56.283Z,42.66
2018-10-16T13:33:56.335Z,42.54
2018-10-16T13:34:56.346Z,42.25
2018-10-16T13:35:56.294Z,42.83
2018-10-16T13:36:56.325Z,43.32
2018-10-16T13:37:56.318Z,43.41
2018-10-16T13:38:56.300Z,43.10
2018-10-16T13:39:56.358Z,44.17
2018-10-16T13:40:56.334Z,45.14
2018-10-16T13:41:56.313Z,45.07
2018-10-16T13:42:56.401Z,44.09
2018-10-16T13:43:56.344Z,42.64
2018-10-16T13:44:56.325Z,42.68
2018-10-16T13:45:56.355Z,42.21
2018-10-16T13:46:56.336Z,42.31
2018-10-16T13:47:56.329Z,41.36
2018-10-16T13:48:56.333Z,41.36
2018-10-16T13:49:56.390Z,41.63
2018-10-16T13:50:56.337Z,41.14
2018-10-16T13:51:56.391Z,42.00
2018-10-16T13:52:56.341Z,42.49
2018-10-16T13:53:56.344Z,43.07
2018-10-16T13:54:56.349Z,43.24
2018-10-16T13:55:56.365Z,43.54
2018-10-16T13:56:56.367Z,42.56
2018-10-16T13:57:56.423Z,43.46
2018-10-16T13:58:56.363Z,42.87
2018-10-16T13:59:56.362Z,42.90
2018-10-16T14:00:56.362Z,42.31
2018-10-16T14:01:56.434Z,41.36
2018-10-16T14:02:56.373Z,41.65
2018-10-16T14:03:56.385Z,41.67
2018-10-16T14:04:56.439Z,41.85
2018-10-16T14:05:56.377Z,41.75
2018-10-16T14:06:56.377Z,40.85
2018-10-16T14:07:56.477Z,40.56
2018-10-16T14:08:56.383Z,41.51
2018-10-16T14:09:56.394Z,41.98
2018-10-16T14:10:56.388Z,42.36
2018-10-16T14:11:56.399Z,42.25
2018-10-16T14:12:56.393Z,43.12
2018-10-16T14:13:56.395Z,43.61
2018-10-16T14:14:56.398Z,43.10
2018-10-16T14:15:56.414Z,43.59
2018-10-16T14:16:56.451Z,43.59
2018-10-16T14:17:56.442Z,44.07
2018-10-16T14:18:56.405Z,44.44
2018-10-16T14:19:56.464Z,45.31
2018-10-16T14:20:56.408Z,45.21
2018-10-16T14:21:56.528Z,44.92
2018-10-16T14:22:56.414Z,44.54
2018-10-16T14:23:56.444Z,45.68
2018-10-16T14:24:56.433Z,45.80
2018-10-16T14:25:56.449Z,45.80
2018-10-16T14:26:56.414Z,45.41
2018-10-16T14:27:56.421Z,45.43
2018-10-16T14:28:56.415Z,45.21
2018-10-16T14:29:56.428Z,45.12
2018-10-16T14:30:56.423Z,44.34
2018-10-16T14:31:56.496Z,44.44
2018-10-16T14:32:56.423Z,45.20
2018-10-16T14:33:56.624Z,45.10
2018-10-16T14:34:56.425Z,45.20
2018-10-16T14:35:56.431Z,45.68
2018-10-16T14:36:56.426Z,45.97
2018-10-16T14:37:56.470Z,45.87
2018-10-16T14:38:56.428Z,46.07
2018-10-16T14:39:56.481Z,46.45
2018-10-16T14:40:56.436Z,45.80
2018-10-16T14:41:56.434Z,44.37
2018-10-16T14:42:56.437Z,43.88
2018-10-16T14:43:56.479Z,43.61
2018-10-16T14:44:56.438Z,43.15
2018-10-16T14:45:56.444Z,42.68
2018-10-16T14:46:56.440Z,42.29
2018-10-16T14:47:56.488Z,42.39
2018-10-16T14:48:56.439Z,42.39
2018-10-16T14:49:56.467Z,42.19
2018-10-16T14:50:56.442Z,42.39
2018-10-16T14:51:56.453Z,42.29
2018-10-16T14:52:56.448Z,42.39
2018-10-16T14:53:56.446Z,42.19
2018-10-16T14:54:56.444Z,42.29
2018-10-16T14:55:56.504Z,42.19
2018-10-16T14:56:56.526Z,41.63
2018-10-16T14:57:56.473Z,41.24
2018-10-16T14:58:56.446Z,41.24
2018-10-16T14:59:56.450Z,40.75
2018-10-16T15:00:56.449Z,41.24
2018-10-16T15:01:56.505Z,41.34
2018-10-16T15:02:56.445Z,41.73
2018-10-16T15:03:56.455Z,41.93
2018-10-16T15:04:56.457Z,41.34
2018-10-16T15:05:56.451Z,40.64
2018-10-16T15:06:56.454Z,41.22
2018-10-16T15:07:56.468Z,40.73
2018-10-16T15:08:56.449Z,41.32
2018-10-16T15:09:56.557Z,41.69
2018-10-16T15:10:56.455Z,42.27
2018-10-16T15:11:56.466Z,41.88
2018-10-16T15:12:56.452Z,41.39
2018-10-16T15:13:56.503Z,41.20
2018-10-16T15:14:56.453Z,40.62
2018-10-16T15:15:56.507Z,41.69
2018-10-16T15:16:56.450Z,41.98
2018-10-16T15:17:56.453Z,41.77
2018-10-16T15:18:56.452Z,42.54
2018-10-16T15:19:56.462Z,42.15
2018-10-16T15:20:56.467Z,42.83
2018-10-16T15:21:56.469Z,42.44
2018-10-16T15:22:56.461Z,42.23
2018-10-16T15:23:56.517Z,43.20
2018-10-16T15:24:56.449Z,42.69
2018-10-16T15:25:56.519Z,44.05
2018-10-16T15:26:56.459Z,43.64
2018-10-16T15:27:56.489Z,44.03
2018-10-16T15:28:56.460Z,43.74
2018-10-16T15:29:56.450Z,43.45
2018-10-16T15:30:56.448Z,43.74
2018-10-16T15:31:56.523Z,44.13
2018-10-16T15:32:56.451Z,43.64
2018-10-16T15:33:56.524Z,43.74
2018-10-16T15:34:56.453Z,44.59
2018-10-16T15:35:56.459Z,44.51
2018-10-16T15:36:56.447Z,44.13
2018-10-16T15:37:56.484Z,44.90
2018-10-16T15:38:56.449Z,45.07
2018-10-16T15:39:56.481Z,45.07
2018-10-16T15:40:56.447Z,45.56
2018-10-16T15:41:56.480Z,45.56
2018-10-16T15:42:56.452Z,45.95
2018-10-16T15:43:56.485Z,46.70
2018-10-16T15:44:56.454Z,46.51
2018-10-16T15:45:56.461Z,46.51
2018-10-16T15:46:56.447Z,46.60
2018-10-16T15:47:56.502Z,46.80
2018-10-16T15:48:56.471Z,47.47
2018-10-16T15:49:56.450Z,47.36
2018-10-16T15:50:56.441Z,47.16
2018-10-16T15:51:56.447Z,47.74
2018-10-16T15:52:56.445Z,47.94
2018-10-16T15:53:56.453Z,48.32
2018-10-16T15:54:56.444Z,48.03
2018-10-16T15:55:56.462Z,48.90
2018-10-16T15:56:56.437Z,48.69
2018-10-16T15:57:56.488Z,49.27
2018-10-16T15:58:56.471Z,49.17
2018-10-16T15:59:56.501Z,48.97
2018-10-16T16:00:56.440Z,49.07
2018-10-16T16:01:56.449Z,49.17